sensor_id;sensor_type;location;lat;lon;timestamp;P1;durP1;ratioP1;P2;durP2;ratioP2
9461;SDS011;4769;42.660;23.262;2023-06-10T00:00:39;10.07;;;7.97;;
9461;SDS011;4769;42.660;23.262;2023-06-10T00:03:05;8.68;;;7.82;;
9461;SDS011;4769;42.660;23.262;2023-06-10T00:05:30;8.52;;;7.40;;
9461;SDS011;4769;42.660;23.262;2023-06-10T00:07:56;8.75;;;7.93;;
9461;SDS011;4769;42.660;23.262;2023-06-10T00:10:22;8.60;;;7.80;;
9461;SDS011;4769;42.660;23.262;2023-06-10T00:12:51;8.57;;;7.40;;
9461;SDS011;4769;42.660;23.262;2023-06-10T00:15:16;10.02;;;7.55;;
9461;SDS011;4769;42.660;23.262;2023-06-10T00:17:42;10.70;;;7.22;;
9461;SDS011;4769;42.660;23.262;2023-06-10T00:20:09;9.65;;;7.45;;
9461;SDS011;4769;42.660;23.262;2023-06-10T00:22:35;9.73;;;7.55;;
9461;SDS011;4769;42.660;23.262;2023-06-10T00:25:01;9.15;;;7.80;;
9461;SDS011;4769;42.660;23.262;2023-06-10T00:27:27;8.40;;;7.60;;
9461;SDS011;4769;42.660;23.262;2023-06-10T00:29:55;9.52;;;7.63;;
9461;SDS011;4769;42.660;23.262;2023-06-10T00:32:21;8.73;;;7.90;;
9461;SDS011;4769;42.660;23.262;2023-06-10T00:34:47;8.70;;;7.93;;
9461;SDS011;4769;42.660;23.262;2023-06-10T00:37:13;8.90;;;8.00;;
9461;SDS011;4769;42.660;23.262;2023-06-10T00:39:38;8.40;;;7.60;;
9461;SDS011;4769;42.660;23.262;2023-06-10T00:42:04;8.55;;;7.68;;
9461;SDS011;4769;42.660;23.262;2023-06-10T00:44:31;9.70;;;7.47;;
9461;SDS011;4769;42.660;23.262;2023-06-10T00:46:59;9.80;;;7.80;;
9461;SDS011;4769;42.660;23.262;2023-06-10T00:49:25;9.48;;;7.97;;
9461;SDS011;4769;42.660;23.262;2023-06-10T00:51:51;9.65;;;8.25;;
9461;SDS011;4769;42.660;23.262;2023-06-10T00:54:19;9.77;;;8.00;;
9461;SDS011;4769;42.660;23.262;2023-06-10T00:56:46;9.93;;;7.93;;
9461;SDS011;4769;42.660;23.262;2023-06-10T00:59:13;8.82;;;7.55;;
9461;SDS011;4769;42.660;23.262;2023-06-10T01:01:38;8.43;;;7.57;;
9461;SDS011;4769;42.660;23.262;2023-06-10T01:04:07;8.15;;;7.28;;
9461;SDS011;4769;42.660;23.262;2023-06-10T01:06:34;9.93;;;8.02;;
9461;SDS011;4769;42.660;23.262;2023-06-10T01:09:09;7.78;;;7.00;;
9461;SDS011;4769;42.660;23.262;2023-06-10T01:11:44;8.27;;;7.47;;
9461;SDS011;4769;42.660;23.262;2023-06-10T01:14:13;9.25;;;7.20;;
9461;SDS011;4769;42.660;23.262;2023-06-10T01:16:39;7.57;;;6.80;;
9461;SDS011;4769;42.660;23.262;2023-06-10T01:19:08;8.27;;;7.20;;
9461;SDS011;4769;42.660;23.262;2023-06-10T01:21:37;11.38;;;8.05;;
9461;SDS011;4769;42.660;23.262;2023-06-10T01:24:03;8.15;;;7.20;;
9461;SDS011;4769;42.660;23.262;2023-06-10T01:26:30;8.52;;;7.72;;
9461;SDS011;4769;42.660;23.262;2023-06-10T01:29:00;9.00;;;8.10;;
9461;SDS011;4769;42.660;23.262;2023-06-10T01:31:33;8.68;;;7.10;;
9461;SDS011;4769;42.660;23.262;2023-06-10T01:34:07;9.05;;;6.85;;
9461;SDS011;4769;42.660;23.262;2023-06-10T01:36:38;8.07;;;7.32;;
9461;SDS011;4769;42.660;23.262;2023-06-10T01:39:05;8.13;;;7.18;;
9461;SDS011;4769;42.660;23.262;2023-06-10T01:41:33;7.88;;;7.07;;
9461;SDS011;4769;42.660;23.262;2023-06-10T01:44:01;9.60;;;7.43;;
9461;SDS011;4769;42.660;23.262;2023-06-10T01:46:26;7.82;;;7.07;;
9461;SDS011;4769;42.660;23.262;2023-06-10T01:48:55;7.18;;;6.55;;
9461;SDS011;4769;42.660;23.262;2023-06-10T01:51:21;8.68;;;7.00;;
9461;SDS011;4769;42.660;23.262;2023-06-10T01:53:50;8.73;;;7.10;;
9461;SDS011;4769;42.660;23.262;2023-06-10T01:56:16;7.40;;;6.68;;
9461;SDS011;4769;42.660;23.262;2023-06-10T01:58:42;9.10;;;7.30;;
9461;SDS011;4769;42.660;23.262;2023-06-10T02:01:08;7.82;;;6.88;;
9461;SDS011;4769;42.660;23.262;2023-06-10T02:03:36;7.63;;;7.03;;
9461;SDS011;4769;42.660;23.262;2023-06-10T02:06:03;8.85;;;6.88;;
9461;SDS011;4769;42.660;23.262;2023-06-10T02:08:31;8.60;;;6.75;;
9461;SDS011;4769;42.660;23.262;2023-06-10T02:22:57;9.77;;;6.63;;
9461;SDS011;4769;42.660;23.262;2023-06-10T02:25:24;6.30;;;5.75;;
9461;SDS011;4769;42.660;23.262;2023-06-10T02:27:49;8.25;;;6.43;;
9461;SDS011;4769;42.660;23.262;2023-06-10T02:30:15;8.75;;;6.00;;
9461;SDS011;4769;42.660;23.262;2023-06-10T02:32:41;6.70;;;6.10;;
9461;SDS011;4769;42.660;23.262;2023-06-10T02:35:07;6.35;;;5.68;;
9461;SDS011;4769;42.660;23.262;2023-06-10T02:37:33;6.47;;;5.88;;
9461;SDS011;4769;42.660;23.262;2023-06-10T02:40:01;6.65;;;6.05;;
9461;SDS011;4769;42.660;23.262;2023-06-10T02:42:27;5.93;;;5.53;;
9461;SDS011;4769;42.660;23.262;2023-06-10T02:44:53;6.40;;;5.80;;
9461;SDS011;4769;42.660;23.262;2023-06-10T02:47:19;6.85;;;5.82;;
9461;SDS011;4769;42.660;23.262;2023-06-10T02:49:44;6.95;;;6.15;;
9461;SDS011;4769;42.660;23.262;2023-06-10T02:52:10;6.25;;;5.53;;
9461;SDS011;4769;42.660;23.262;2023-06-10T02:54:36;6.18;;;5.57;;
9461;SDS011;4769;42.660;23.262;2023-06-10T02:57:05;7.35;;;5.13;;
9461;SDS011;4769;42.660;23.262;2023-06-10T02:59:31;7.13;;;5.80;;
9461;SDS011;4769;42.660;23.262;2023-06-10T03:01:56;5.93;;;5.00;;
9461;SDS011;4769;42.660;23.262;2023-06-10T03:04:22;7.03;;;5.25;;
9461;SDS011;4769;42.660;23.262;2023-06-10T03:06:48;6.47;;;5.10;;
9461;SDS011;4769;42.660;23.262;2023-06-10T03:09:14;5.63;;;5.03;;
9461;SDS011;4769;42.660;23.262;2023-06-10T03:11:40;7.10;;;5.78;;
9461;SDS011;4769;42.660;23.262;2023-06-10T03:14:08;6.22;;;5.43;;
9461;SDS011;4769;42.660;23.262;2023-06-10T03:16:34;8.98;;;5.70;;
9461;SDS011;4769;42.660;23.262;2023-06-10T03:19:00;6.55;;;5.95;;
9461;SDS011;4769;42.660;23.262;2023-06-10T03:21:25;6.75;;;5.50;;
9461;SDS011;4769;42.660;23.262;2023-06-10T03:23:51;7.13;;;5.95;;
9461;SDS011;4769;42.660;23.262;2023-06-10T03:26:17;7.38;;;6.32;;
9461;SDS011;4769;42.660;23.262;2023-06-10T03:28:43;7.25;;;5.63;;
9461;SDS011;4769;42.660;23.262;2023-06-10T03:31:11;6.03;;;5.55;;
9461;SDS011;4769;42.660;23.262;2023-06-10T03:33:37;8.73;;;6.55;;
9461;SDS011;4769;42.660;23.262;2023-06-10T03:36:03;8.60;;;7.70;;
9461;SDS011;4769;42.660;23.262;2023-06-10T03:38:29;9.35;;;8.10;;
9461;SDS011;4769;42.660;23.262;2023-06-10T03:40:55;8.77;;;7.47;;
9461;SDS011;4769;42.660;23.262;2023-06-10T03:43:21;8.45;;;7.68;;
9461;SDS011;4769;42.660;23.262;2023-06-10T03:45:47;8.40;;;7.60;;
9461;SDS011;4769;42.660;23.262;2023-06-10T03:51:21;10.50;;;7.80;;
9461;SDS011;4769;42.660;23.262;2023-06-10T03:53:46;9.75;;;8.18;;
9461;SDS011;4769;42.660;23.262;2023-06-10T03:56:12;8.93;;;8.13;;
9461;SDS011;4769;42.660;23.262;2023-06-10T03:58:38;9.13;;;8.30;;
9461;SDS011;4769;42.660;23.262;2023-06-10T04:01:04;9.88;;;8.50;;
9461;SDS011;4769;42.660;23.262;2023-06-10T04:03:34;8.68;;;7.78;;
9461;SDS011;4769;42.660;23.262;2023-06-10T04:06:03;8.52;;;7.50;;
9461;SDS011;4769;42.660;23.262;2023-06-10T04:11:13;8.60;;;7.78;;
9461;SDS011;4769;42.660;23.262;2023-06-10T04:13:39;8.57;;;7.78;;
9461;SDS011;4769;42.660;23.262;2023-06-10T04:16:05;9.13;;;6.55;;
9461;SDS011;4769;42.660;23.262;2023-06-10T04:18:30;6.55;;;5.72;;
9461;SDS011;4769;42.660;23.262;2023-06-10T04:20:56;10.10;;;6.85;;
9461;SDS011;4769;42.660;23.262;2023-06-10T04:23:22;8.93;;;6.88;;
9461;SDS011;4769;42.660;23.262;2023-06-10T04:25:50;7.93;;;6.85;;
9461;SDS011;4769;42.660;23.262;2023-06-10T04:28:16;7.22;;;6.07;;
9461;SDS011;4769;42.660;23.262;2023-06-10T04:30:42;8.45;;;6.93;;
9461;SDS011;4769;42.660;23.262;2023-06-10T04:33:07;8.20;;;7.35;;
9461;SDS011;4769;42.660;23.262;2023-06-10T04:35:33;8.60;;;7.13;;
9461;SDS011;4769;42.660;23.262;2023-06-10T04:37:59;8.88;;;7.93;;
9461;SDS011;4769;42.660;23.262;2023-06-10T04:40:24;9.13;;;8.20;;
9461;SDS011;4769;42.660;23.262;2023-06-10T04:42:53;8.65;;;7.75;;
9461;SDS011;4769;42.660;23.262;2023-06-10T04:45:18;9.15;;;7.40;;
9461;SDS011;4769;42.660;23.262;2023-06-10T04:47:44;9.13;;;7.70;;
9461;SDS011;4769;42.660;23.262;2023-06-10T04:50:10;8.90;;;7.55;;
9461;SDS011;4769;42.660;23.262;2023-06-10T04:52:35;7.85;;;7.15;;
9461;SDS011;4769;42.660;23.262;2023-06-10T04:55:01;7.78;;;7.07;;
9461;SDS011;4769;42.660;23.262;2023-06-10T04:57:27;8.30;;;7.25;;
9461;SDS011;4769;42.660;23.262;2023-06-10T04:59:55;9.90;;;7.50;;
9461;SDS011;4769;42.660;23.262;2023-06-10T05:02:21;8.95;;;7.55;;
9461;SDS011;4769;42.660;23.262;2023-06-10T05:04:47;9.13;;;7.75;;
9461;SDS011;4769;42.660;23.262;2023-06-10T05:07:12;7.57;;;6.90;;
9461;SDS011;4769;42.660;23.262;2023-06-10T05:09:38;10.40;;;8.15;;
9461;SDS011;4769;42.660;23.262;2023-06-10T05:12:04;8.00;;;7.30;;
9461;SDS011;4769;42.660;23.262;2023-06-10T05:14:31;8.43;;;5.57;;
9461;SDS011;4769;42.660;23.262;2023-06-10T05:16:59;11.70;;;6.13;;
9461;SDS011;4769;42.660;23.262;2023-06-10T05:19:25;7.95;;;6.13;;
9461;SDS011;4769;42.660;23.262;2023-06-10T05:21:50;7.18;;;6.47;;
9461;SDS011;4769;42.660;23.262;2023-06-10T05:24:16;8.43;;;6.32;;
9461;SDS011;4769;42.660;23.262;2023-06-10T05:26:42;8.65;;;6.97;;
9461;SDS011;4769;42.660;23.262;2023-06-10T05:29:07;7.97;;;7.00;;
9461;SDS011;4769;42.660;23.262;2023-06-10T05:31:33;9.77;;;7.70;;
9461;SDS011;4769;42.660;23.262;2023-06-10T05:34:02;9.02;;;6.90;;
9461;SDS011;4769;42.660;23.262;2023-06-10T05:36:28;12.32;;;9.77;;
9461;SDS011;4769;42.660;23.262;2023-06-10T05:38:53;27.73;;;23.23;;
9461;SDS011;4769;42.660;23.262;2023-06-10T05:41:19;19.48;;;17.35;;
9461;SDS011;4769;42.660;23.262;2023-06-10T05:43:45;10.05;;;9.05;;
9461;SDS011;4769;42.660;23.262;2023-06-10T05:46:10;9.50;;;8.65;;
9461;SDS011;4769;42.660;23.262;2023-06-10T05:48:36;11.82;;;9.00;;
9461;SDS011;4769;42.660;23.262;2023-06-10T05:51:05;10.15;;;8.50;;
9461;SDS011;4769;42.660;23.262;2023-06-10T05:53:31;11.00;;;7.32;;
9461;SDS011;4769;42.660;23.262;2023-06-10T05:55:57;7.90;;;6.53;;
9461;SDS011;4769;42.660;23.262;2023-06-10T05:58:24;7.20;;;6.25;;
9461;SDS011;4769;42.660;23.262;2023-06-10T06:00:49;6.55;;;5.93;;
9461;SDS011;4769;42.660;23.262;2023-06-10T06:03:15;8.82;;;7.13;;
9461;SDS011;4769;42.660;23.262;2023-06-10T06:05:42;9.52;;;7.82;;
9461;SDS011;4769;42.660;23.262;2023-06-10T06:08:13;9.07;;;8.10;;
9461;SDS011;4769;42.660;23.262;2023-06-10T06:10:39;9.13;;;8.20;;
9461;SDS011;4769;42.660;23.262;2023-06-10T06:13:05;9.25;;;7.72;;
9461;SDS011;4769;42.660;23.262;2023-06-10T06:15:33;9.50;;;7.63;;
9461;SDS011;4769;42.660;23.262;2023-06-10T06:17:59;9.55;;;8.55;;
9461;SDS011;4769;42.660;23.262;2023-06-10T06:20:24;9.98;;;7.93;;
9461;SDS011;4769;42.660;23.262;2023-06-10T06:22:56;9.00;;;7.07;;
9461;SDS011;4769;42.660;23.262;2023-06-10T06:25:24;11.68;;;7.60;;
9461;SDS011;4769;42.660;23.262;2023-06-10T06:27:50;7.85;;;7.13;;
9461;SDS011;4769;42.660;23.262;2023-06-10T06:30:16;12.30;;;7.70;;
9461;SDS011;4769;42.660;23.262;2023-06-10T06:32:41;10.52;;;7.50;;
9461;SDS011;4769;42.660;23.262;2023-06-10T06:35:07;11.50;;;7.40;;
9461;SDS011;4769;42.660;23.262;2023-06-10T06:37:33;11.82;;;7.38;;
9461;SDS011;4769;42.660;23.262;2023-06-10T06:39:59;11.52;;;7.05;;
9461;SDS011;4769;42.660;23.262;2023-06-10T06:42:28;7.65;;;6.82;;
9461;SDS011;4769;42.660;23.262;2023-06-10T06:44:53;7.00;;;6.10;;
9461;SDS011;4769;42.660;23.262;2023-06-10T06:47:22;6.82;;;5.65;;
9461;SDS011;4769;42.660;23.262;2023-06-10T06:49:48;7.05;;;6.20;;
9461;SDS011;4769;42.660;23.262;2023-06-10T06:52:14;7.88;;;5.40;;
9461;SDS011;4769;42.660;23.262;2023-06-10T06:54:40;6.10;;;5.50;;
9461;SDS011;4769;42.660;23.262;2023-06-10T06:57:06;8.93;;;5.85;;
9461;SDS011;4769;42.660;23.262;2023-06-10T06:59:34;6.15;;;5.03;;
9461;SDS011;4769;42.660;23.262;2023-06-10T07:02:00;5.80;;;5.07;;
9461;SDS011;4769;42.660;23.262;2023-06-10T07:04:26;6.72;;;5.63;;
9461;SDS011;4769;42.660;23.262;2023-06-10T07:06:52;7.20;;;6.10;;
9461;SDS011;4769;42.660;23.262;2023-06-10T07:09:17;6.38;;;5.25;;
9461;SDS011;4769;42.660;23.262;2023-06-10T07:11:43;7.65;;;5.03;;
9461;SDS011;4769;42.660;23.262;2023-06-10T07:14:09;5.82;;;4.78;;
9461;SDS011;4769;42.660;23.262;2023-06-10T07:16:37;5.93;;;5.20;;
9461;SDS011;4769;42.660;23.262;2023-06-10T07:19:03;7.68;;;5.50;;
9461;SDS011;4769;42.660;23.262;2023-06-10T07:21:29;7.70;;;5.13;;
9461;SDS011;4769;42.660;23.262;2023-06-10T07:23:55;6.07;;;5.05;;
9461;SDS011;4769;42.660;23.262;2023-06-10T07:26:21;9.32;;;5.30;;
9461;SDS011;4769;42.660;23.262;2023-06-10T07:28:47;8.35;;;5.15;;
9461;SDS011;4769;42.660;23.262;2023-06-10T07:31:13;9.45;;;5.30;;
9461;SDS011;4769;42.660;23.262;2023-06-10T07:33:42;7.43;;;4.88;;
9461;SDS011;4769;42.660;23.262;2023-06-10T07:36:07;8.82;;;5.45;;
9461;SDS011;4769;42.660;23.262;2023-06-10T07:38:33;5.28;;;4.78;;
9461;SDS011;4769;42.660;23.262;2023-06-10T07:40:59;7.68;;;4.82;;
9461;SDS011;4769;42.660;23.262;2023-06-10T07:43:25;5.15;;;4.60;;
9461;SDS011;4769;42.660;23.262;2023-06-10T07:45:51;5.35;;;4.82;;
9461;SDS011;4769;42.660;23.262;2023-06-10T07:48:17;4.60;;;4.20;;
9461;SDS011;4769;42.660;23.262;2023-06-10T07:50:45;5.68;;;4.65;;
9461;SDS011;4769;42.660;23.262;2023-06-10T07:53:11;4.93;;;4.43;;
9461;SDS011;4769;42.660;23.262;2023-06-10T07:55:37;8.05;;;4.90;;
9461;SDS011;4769;42.660;23.262;2023-06-10T07:58:02;8.77;;;4.60;;
9461;SDS011;4769;42.660;23.262;2023-06-10T08:00:28;11.80;;;4.93;;
9461;SDS011;4769;42.660;23.262;2023-06-10T08:02:54;9.93;;;4.82;;
9461;SDS011;4769;42.660;23.262;2023-06-10T08:05:20;7.13;;;5.88;;
9461;SDS011;4769;42.660;23.262;2023-06-10T08:07:48;7.68;;;4.82;;
9461;SDS011;4769;42.660;23.262;2023-06-10T08:10:14;6.00;;;4.35;;
9461;SDS011;4769;42.660;23.262;2023-06-10T08:12:40;5.43;;;4.55;;
9461;SDS011;4769;42.660;23.262;2023-06-10T08:15:06;5.70;;;4.57;;
9461;SDS011;4769;42.660;23.262;2023-06-10T08:17:32;6.72;;;4.45;;
9461;SDS011;4769;42.660;23.262;2023-06-10T08:19:58;7.85;;;4.35;;
9461;SDS011;4769;42.660;23.262;2023-06-10T08:22:24;4.82;;;4.32;;
9461;SDS011;4769;42.660;23.262;2023-06-10T08:24:52;7.78;;;4.22;;
9461;SDS011;4769;42.660;23.262;2023-06-10T08:27:18;4.95;;;4.45;;
9461;SDS011;4769;42.660;23.262;2023-06-10T08:29:44;7.47;;;4.45;;
9461;SDS011;4769;42.660;23.262;2023-06-10T08:32:09;5.50;;;3.95;;
9461;SDS011;4769;42.660;23.262;2023-06-10T08:34:35;5.07;;;4.05;;
9461;SDS011;4769;42.660;23.262;2023-06-10T08:37:01;4.35;;;3.75;;
9461;SDS011;4769;42.660;23.262;2023-06-10T08:39:27;4.68;;;3.40;;
9461;SDS011;4769;42.660;23.262;2023-06-10T08:42:00;5.15;;;3.95;;
9461;SDS011;4769;42.660;23.262;2023-06-10T08:44:30;5.03;;;3.80;;
9461;SDS011;4769;42.660;23.262;2023-06-10T08:46:56;5.30;;;3.83;;
9461;SDS011;4769;42.660;23.262;2023-06-10T08:49:24;4.65;;;3.70;;
9461;SDS011;4769;42.660;23.262;2023-06-10T08:51:53;4.38;;;3.67;;
9461;SDS011;4769;42.660;23.262;2023-06-10T08:54:25;4.28;;;3.40;;
9461;SDS011;4769;42.660;23.262;2023-06-10T08:56:54;6.22;;;3.92;;
9461;SDS011;4769;42.660;23.262;2023-06-10T08:59:25;5.38;;;3.58;;
9461;SDS011;4769;42.660;23.262;2023-06-10T09:01:50;4.18;;;3.40;;
9461;SDS011;4769;42.660;23.262;2023-06-10T09:04:17;4.50;;;3.20;;
9461;SDS011;4769;42.660;23.262;2023-06-10T09:06:43;4.30;;;3.90;;
9461;SDS011;4769;42.660;23.262;2023-06-10T09:09:10;4.60;;;3.88;;
9461;SDS011;4769;42.660;23.262;2023-06-10T09:11:38;4.90;;;4.40;;
9461;SDS011;4769;42.660;23.262;2023-06-10T09:14:05;6.30;;;4.63;;
9461;SDS011;4769;42.660;23.262;2023-06-10T09:16:34;5.45;;;4.00;;
9461;SDS011;4769;42.660;23.262;2023-06-10T09:19:00;6.50;;;3.97;;
9461;SDS011;4769;42.660;23.262;2023-06-10T09:21:27;4.55;;;4.00;;
9461;SDS011;4769;42.660;23.262;2023-06-10T09:23:53;6.00;;;4.13;;
9461;SDS011;4769;42.660;23.262;2023-06-10T09:26:19;7.18;;;3.72;;
9461;SDS011;4769;42.660;23.262;2023-06-10T09:28:47;6.90;;;4.15;;
9461;SDS011;4769;42.660;23.262;2023-06-10T09:31:14;4.68;;;4.28;;
9461;SDS011;4769;42.660;23.262;2023-06-10T09:33:44;5.35;;;3.85;;
9461;SDS011;4769;42.660;23.262;2023-06-10T09:36:10;4.80;;;4.25;;
9461;SDS011;4769;42.660;23.262;2023-06-10T09:38:36;4.10;;;3.80;;
9461;SDS011;4769;42.660;23.262;2023-06-10T09:41:02;5.38;;;4.32;;
9461;SDS011;4769;42.660;23.262;2023-06-10T09:46:15;3.90;;;3.50;;
9461;SDS011;4769;42.660;23.262;2023-06-10T09:48:44;3.92;;;3.30;;
9461;SDS011;4769;42.660;23.262;2023-06-10T09:51:11;4.88;;;3.72;;
9461;SDS011;4769;42.660;23.262;2023-06-10T09:53:38;5.45;;;3.65;;
9461;SDS011;4769;42.660;23.262;2023-06-10T09:56:04;5.07;;;4.13;;
9461;SDS011;4769;42.660;23.262;2023-06-10T09:58:37;4.47;;;4.07;;
9461;SDS011;4769;42.660;23.262;2023-06-10T10:01:07;6.35;;;4.25;;
9461;SDS011;4769;42.660;23.262;2023-06-10T10:03:45;4.85;;;4.35;;
9461;SDS011;4769;42.660;23.262;2023-06-10T10:06:11;6.00;;;3.97;;
9461;SDS011;4769;42.660;23.262;2023-06-10T10:08:37;5.53;;;4.30;;
9461;SDS011;4769;42.660;23.262;2023-06-10T10:11:03;5.28;;;4.25;;
9461;SDS011;4769;42.660;23.262;2023-06-10T10:13:29;5.75;;;4.22;;
9461;SDS011;4769;42.660;23.262;2023-06-10T10:15:59;5.15;;;4.55;;
9461;SDS011;4769;42.660;23.262;2023-06-10T10:18:29;5.70;;;4.05;;
9461;SDS011;4769;42.660;23.262;2023-06-10T10:21:00;5.72;;;4.50;;
9461;SDS011;4769;42.660;23.262;2023-06-10T10:23:31;4.68;;;4.28;;
9461;SDS011;4769;42.660;23.262;2023-06-10T10:26:02;6.60;;;4.05;;
9461;SDS011;4769;42.660;23.262;2023-06-10T10:28:34;6.25;;;4.10;;
9461;SDS011;4769;42.660;23.262;2023-06-10T10:31:07;4.35;;;3.75;;
9461;SDS011;4769;42.660;23.262;2023-06-10T10:33:36;5.07;;;3.97;;
9461;SDS011;4769;42.660;23.262;2023-06-10T10:36:10;6.38;;;4.22;;
9461;SDS011;4769;42.660;23.262;2023-06-10T10:38:37;4.40;;;4.00;;
9461;SDS011;4769;42.660;23.262;2023-06-10T10:41:03;4.72;;;4.25;;
9461;SDS011;4769;42.660;23.262;2023-06-10T10:43:30;5.95;;;3.83;;
9461;SDS011;4769;42.660;23.262;2023-06-10T10:45:58;4.18;;;3.88;;
9461;SDS011;4769;42.660;23.262;2023-06-10T10:48:24;4.32;;;3.70;;
9461;SDS011;4769;42.660;23.262;2023-06-10T10:50:56;3.95;;;3.65;;
9461;SDS011;4769;42.660;23.262;2023-06-10T10:53:24;5.70;;;3.58;;
9461;SDS011;4769;42.660;23.262;2023-06-10T10:55:57;4.10;;;3.70;;
9461;SDS011;4769;42.660;23.262;2023-06-10T10:58:24;7.78;;;3.92;;
9461;SDS011;4769;42.660;23.262;2023-06-10T11:00:50;4.97;;;3.60;;
9461;SDS011;4769;42.660;23.262;2023-06-10T11:03:16;3.90;;;3.60;;
9461;SDS011;4769;42.660;23.262;2023-06-10T11:05:43;4.13;;;3.50;;
9461;SDS011;4769;42.660;23.262;2023-06-10T11:08:09;4.30;;;3.70;;
9461;SDS011;4769;42.660;23.262;2023-06-10T11:10:39;7.28;;;3.80;;
9461;SDS011;4769;42.660;23.262;2023-06-10T11:13:06;5.93;;;3.30;;
9461;SDS011;4769;42.660;23.262;2023-06-10T11:15:37;3.40;;;3.10;;
9461;SDS011;4769;42.660;23.262;2023-06-10T11:18:08;4.75;;;3.42;;
9461;SDS011;4769;42.660;23.262;2023-06-10T11:20:53;3.97;;;3.40;;
9461;SDS011;4769;42.660;23.262;2023-06-10T11:26:29;4.65;;;3.08;;
9461;SDS011;4769;42.660;23.262;2023-06-10T11:29:08;5.85;;;3.35;;
9461;SDS011;4769;42.660;23.262;2023-06-10T11:31:38;5.38;;;3.70;;
9461;SDS011;4769;42.660;23.262;2023-06-10T11:34:08;3.72;;;3.30;;
9461;SDS011;4769;42.660;23.262;2023-06-10T11:36:34;5.22;;;3.40;;
9461;SDS011;4769;42.660;23.262;2023-06-10T11:39:03;5.03;;;3.80;;
9461;SDS011;4769;42.660;23.262;2023-06-10T11:41:33;8.23;;;3.70;;
9461;SDS011;4769;42.660;23.262;2023-06-10T11:44:01;5.97;;;3.33;;
9461;SDS011;4769;42.660;23.262;2023-06-10T11:46:28;3.92;;;3.42;;
9461;SDS011;4769;42.660;23.262;2023-06-10T11:48:54;5.05;;;4.25;;
9461;SDS011;4769;42.660;23.262;2023-06-10T11:51:20;4.55;;;3.50;;
9461;SDS011;4769;42.660;23.262;2023-06-10T11:53:47;6.55;;;3.80;;
9461;SDS011;4769;42.660;23.262;2023-06-10T11:56:13;4.10;;;3.50;;
9461;SDS011;4769;42.660;23.262;2023-06-10T11:58:51;3.90;;;3.50;;
9461;SDS011;4769;42.660;23.262;2023-06-10T12:01:19;4.68;;;3.70;;
9461;SDS011;4769;42.660;23.262;2023-06-10T12:03:45;3.72;;;3.33;;
9461;SDS011;4769;42.660;23.262;2023-06-10T12:06:10;4.07;;;3.67;;
9461;SDS011;4769;42.660;23.262;2023-06-10T12:08:40;5.13;;;4.45;;
9461;SDS011;4769;42.660;23.262;2023-06-10T12:11:07;4.95;;;4.53;;
9461;SDS011;4769;42.660;23.262;2023-06-10T12:13:33;4.47;;;4.07;;
9461;SDS011;4769;42.660;23.262;2023-06-10T12:16:09;9.23;;;4.32;;
9461;SDS011;4769;42.660;23.262;2023-06-10T12:18:35;4.78;;;3.88;;
9461;SDS011;4769;42.660;23.262;2023-06-10T12:21:01;10.13;;;4.22;;
9461;SDS011;4769;42.660;23.262;2023-06-10T12:23:26;4.32;;;3.92;;
9461;SDS011;4769;42.660;23.262;2023-06-10T12:25:53;5.97;;;4.20;;
9461;SDS011;4769;42.660;23.262;2023-06-10T12:28:20;7.28;;;4.32;;
9461;SDS011;4769;42.660;23.262;2023-06-10T12:30:46;6.50;;;3.85;;
9461;SDS011;4769;42.660;23.262;2023-06-10T12:33:18;5.15;;;4.63;;
9461;SDS011;4769;42.660;23.262;2023-06-10T12:35:48;4.47;;;4.07;;
9461;SDS011;4769;42.660;23.262;2023-06-10T12:38:14;5.30;;;4.53;;
9461;SDS011;4769;42.660;23.262;2023-06-10T12:40:45;5.47;;;4.63;;
9461;SDS011;4769;42.660;23.262;2023-06-10T12:43:11;5.00;;;4.40;;
9461;SDS011;4769;42.660;23.262;2023-06-10T12:45:38;6.13;;;4.38;;
9461;SDS011;4769;42.660;23.262;2023-06-10T12:48:05;5.32;;;4.53;;
9461;SDS011;4769;42.660;23.262;2023-06-10T12:50:34;5.57;;;4.10;;
9461;SDS011;4769;42.660;23.262;2023-06-10T12:53:00;4.93;;;4.45;;
9461;SDS011;4769;42.660;23.262;2023-06-10T12:55:26;4.28;;;3.88;;
9461;SDS011;4769;42.660;23.262;2023-06-10T12:57:51;6.88;;;3.72;;
9461;SDS011;4769;42.660;23.262;2023-06-10T13:00:18;4.88;;;4.15;;
9461;SDS011;4769;42.660;23.262;2023-06-10T13:02:44;6.72;;;3.95;;
9461;SDS011;4769;42.660;23.262;2023-06-10T13:05:10;4.80;;;4.13;;
9461;SDS011;4769;42.660;23.262;2023-06-10T13:07:38;4.18;;;3.70;;
9461;SDS011;4769;42.660;23.262;2023-06-10T13:10:05;5.32;;;4.10;;
9461;SDS011;4769;42.660;23.262;2023-06-10T13:12:31;4.15;;;3.75;;
9461;SDS011;4769;42.660;23.262;2023-06-10T13:14:57;5.25;;;4.20;;
9461;SDS011;4769;42.660;23.262;2023-06-10T13:17:23;4.82;;;3.95;;
9461;SDS011;4769;42.660;23.262;2023-06-10T13:19:49;5.80;;;4.25;;
9461;SDS011;4769;42.660;23.262;2023-06-10T13:22:15;6.72;;;4.20;;
9461;SDS011;4769;42.660;23.262;2023-06-10T13:24:45;5.05;;;3.97;;
9461;SDS011;4769;42.660;23.262;2023-06-10T13:27:11;8.30;;;4.50;;
9461;SDS011;4769;42.660;23.262;2023-06-10T13:29:36;6.30;;;4.57;;
9461;SDS011;4769;42.660;23.262;2023-06-10T13:32:02;5.47;;;4.53;;
9461;SDS011;4769;42.660;23.262;2023-06-10T13:34:28;6.40;;;4.53;;
9461;SDS011;4769;42.660;23.262;2023-06-10T13:36:54;5.45;;;4.38;;
9461;SDS011;4769;42.660;23.262;2023-06-10T13:39:20;4.80;;;4.13;;
9461;SDS011;4769;42.660;23.262;2023-06-10T13:41:49;6.82;;;4.80;;
9461;SDS011;4769;42.660;23.262;2023-06-10T13:44:16;5.40;;;4.32;;
9461;SDS011;4769;42.660;23.262;2023-06-10T13:46:42;5.05;;;4.53;;
9461;SDS011;4769;42.660;23.262;2023-06-10T13:49:08;4.72;;;4.32;;
9461;SDS011;4769;42.660;23.262;2023-06-10T13:51:33;6.97;;;4.63;;
9461;SDS011;4769;42.660;23.262;2023-06-10T13:53:59;5.95;;;4.45;;
9461;SDS011;4769;42.660;23.262;2023-06-10T13:56:25;4.35;;;3.95;;
9461;SDS011;4769;42.660;23.262;2023-06-10T13:58:54;4.60;;;4.18;;
9461;SDS011;4769;42.660;23.262;2023-06-10T14:01:20;4.65;;;4.20;;
9461;SDS011;4769;42.660;23.262;2023-06-10T14:03:47;5.18;;;4.68;;
9461;SDS011;4769;42.660;23.262;2023-06-10T14:06:13;5.15;;;4.22;;
9461;SDS011;4769;42.660;23.262;2023-06-10T14:08:39;7.38;;;4.35;;
9461;SDS011;4769;42.660;23.262;2023-06-10T14:11:04;4.68;;;4.20;;
9461;SDS011;4769;42.660;23.262;2023-06-10T14:13:30;4.57;;;4.18;;
9461;SDS011;4769;42.660;23.262;2023-06-10T14:15:58;5.25;;;4.85;;
9461;SDS011;4769;42.660;23.262;2023-06-10T14:18:24;4.57;;;4.18;;
9461;SDS011;4769;42.660;23.262;2023-06-10T14:20:50;4.68;;;4.10;;
9461;SDS011;4769;42.660;23.262;2023-06-10T14:23:16;4.85;;;4.35;;
9461;SDS011;4769;42.660;23.262;2023-06-10T14:25:42;5.95;;;4.25;;
9461;SDS011;4769;42.660;23.262;2023-06-10T14:28:07;6.25;;;4.10;;
9461;SDS011;4769;42.660;23.262;2023-06-10T14:30:33;4.97;;;4.47;;
9461;SDS011;4769;42.660;23.262;2023-06-10T14:33:02;4.93;;;4.43;;
9461;SDS011;4769;42.660;23.262;2023-06-10T14:35:28;4.30;;;3.90;;
9461;SDS011;4769;42.660;23.262;2023-06-10T14:37:53;4.53;;;4.13;;
9461;SDS011;4769;42.660;23.262;2023-06-10T14:40:19;6.78;;;4.38;;
9461;SDS011;4769;42.660;23.262;2023-06-10T14:42:45;4.65;;;4.25;;
9461;SDS011;4769;42.660;23.262;2023-06-10T14:45:11;5.10;;;4.70;;
9461;SDS011;4769;42.660;23.262;2023-06-10T14:47:36;4.97;;;4.57;;
9461;SDS011;4769;42.660;23.262;2023-06-10T14:50:05;5.05;;;4.55;;
9461;SDS011;4769;42.660;23.262;2023-06-10T14:52:32;4.85;;;4.00;;
9461;SDS011;4769;42.660;23.262;2023-06-10T14:54:57;4.65;;;4.25;;
9461;SDS011;4769;42.660;23.262;2023-06-10T14:57:23;4.78;;;4.20;;
9461;SDS011;4769;42.660;23.262;2023-06-10T14:59:49;6.32;;;4.40;;
9461;SDS011;4769;42.660;23.262;2023-06-10T15:02:15;5.82;;;4.80;;
9461;SDS011;4769;42.660;23.262;2023-06-10T15:04:41;5.03;;;4.25;;
9461;SDS011;4769;42.660;23.262;2023-06-10T15:07:09;6.55;;;4.50;;
9461;SDS011;4769;42.660;23.262;2023-06-10T15:09:35;4.90;;;4.40;;
9461;SDS011;4769;42.660;23.262;2023-06-10T15:12:01;4.55;;;4.10;;
9461;SDS011;4769;42.660;23.262;2023-06-10T15:14:28;4.45;;;3.83;;
9461;SDS011;4769;42.660;23.262;2023-06-10T15:16:53;4.65;;;3.45;;
9461;SDS011;4769;42.660;23.262;2023-06-10T15:19:19;3.80;;;3.40;;
9461;SDS011;4769;42.660;23.262;2023-06-10T15:21:45;4.10;;;3.70;;